sensor_id;sensor_type;location;lat;lon;timestamp;pressure;altitude;pressure_sealevel;temperature;humidity
62592;BME280;48659;41.622;2.276;2022-10-28T07:03:43;100801.19;;;16.03;51.59
62592;BME280;48659;41.622;2.276;2022-10-28T07:03:54;100802.54;;;15.67;51.40
62592;BME280;48659;41.622;2.276;2022-10-28T07:06:21;100801.78;;;16.35;50.33
62592;BME280;48659;41.622;2.276;2022-10-28T07:08:48;100801.31;;;16.22;50.48
62592;BME280;48659;41.622;2.276;2022-10-28T07:11:16;100799.02;;;16.96;50.46
62592;BME280;48659;41.622;2.276;2022-10-28T07:13:44;100798.56;;;16.91;50.97
62592;BME280;48659;41.622;2.276;2022-10-28T07:16:11;100798.98;;;17.09;51.28
62592;BME280;48659;41.622;2.276;2022-10-28T07:18:39;100806.81;;;17.06;50.63
62592;BME280;48659;41.622;2.276;2022-10-28T07:21:05;100810.36;;;17.27;50.35
62592;BME280;48659;41.622;2.276;2022-10-28T07:23:33;100812.01;;;17.44;49.52
62592;BME280;48659;41.622;2.276;2022-10-28T07:26:00;100813.04;;;17.46;50.22
62592;BME280;48659;41.622;2.276;2022-10-28T07:28:28;100814.04;;;17.42;49.50
62592;BME280;48659;41.622;2.276;2022-10-28T07:31:04;100821.12;;;18.02;47.76
62592;BME280;48659;41.622;2.276;2022-10-28T07:33:32;100819.67;;;18.34;47.45
62592;BME280;48659;41.622;2.276;2022-10-28T07:36:02;100824.30;;;18.45;47.12
62592;BME280;48659;41.622;2.276;2022-10-28T07:38:29;100819.60;;;18.66;46.14
62592;BME280;48659;41.622;2.276;2022-10-28T07:40:57;100821.62;;;18.64;46.49
62592;BME280;48659;41.622;2.276;2022-10-28T07:43:24;100824.24;;;18.62;45.97
62592;BME280;48659;41.622;2.276;2022-10-28T07:45:55;100829.44;;;18.55;45.50
62592;BME280;48659;41.622;2.276;2022-10-28T07:48:23;100834.11;;;18.82;44.50
62592;BME280;48659;41.622;2.276;2022-10-28T07:50:52;100834.83;;;18.93;43.72
62592;BME280;48659;41.622;2.276;2022-10-28T07:53:19;100837.74;;;19.16;42.89
62592;BME280;48659;41.622;2.276;2022-10-28T07:55:54;100840.16;;;19.05;42.85
62592;BME280;48659;41.622;2.276;2022-10-28T07:58:21;100841.80;;;19.13;42.96
62592;BME280;48659;41.622;2.276;2022-10-28T08:00:48;100843.98;;;19.58;42.30
62592;BME280;48659;41.622;2.276;2022-10-28T08:03:15;100844.74;;;19.62;40.97
62592;BME280;48659;41.622;2.276;2022-10-28T08:05:43;100844.99;;;19.66;40.88
62592;BME280;48659;41.622;2.276;2022-10-28T08:08:10;100844.72;;;19.75;40.08
62592;BME280;48659;41.622;2.276;2022-10-28T08:10:38;100844.55;;;19.74;39.26
62592;BME280;48659;41.622;2.276;2022-10-28T08:13:06;100846.59;;;19.89;39.09
62592;BME280;48659;41.622;2.276;2022-10-28T08:15:34;100847.19;;;19.94;39.59
62592;BME280;48659;41.622;2.276;2022-10-28T08:18:01;100852.15;;;20.08;39.49
62592;BME280;48659;41.622;2.276;2022-10-28T08:20:29;100846.35;;;19.40;39.69
62592;BME280;48659;41.622;2.276;2022-10-28T08:23:07;100849.11;;;19.80;38.71
62592;BME280;48659;41.622;2.276;2022-10-28T08:25:34;100852.03;;;20.48;38.26
62592;BME280;48659;41.622;2.276;2022-10-28T08:28:05;100849.81;;;19.73;37.95
62592;BME280;48659;41.622;2.276;2022-10-28T08:30:33;100849.16;;;20.75;36.87
62592;BME280;48659;41.622;2.276;2022-10-28T08:33:00;100851.51;;;20.98;38.09
62592;BME280;48659;41.622;2.276;2022-10-28T08:35:28;100853.18;;;21.00;39.24
62592;BME280;48659;41.622;2.276;2022-10-28T08:38:06;100852.16;;;21.27;39.58
62592;BME280;48659;41.622;2.276;2022-10-28T08:40:39;100855.93;;;20.92;39.70
62592;BME280;48659;41.622;2.276;2022-10-28T08:43:16;100860.49;;;21.07;39.87
62592;BME280;48659;41.622;2.276;2022-10-28T08:45:50;100862.05;;;21.36;39.25
62592;BME280;48659;41.622;2.276;2022-10-28T08:48:26;100862.51;;;21.17;39.17
62592;BME280;48659;41.622;2.276;2022-10-28T08:50:58;100858.10;;;21.37;39.07
62592;BME280;48659;41.622;2.276;2022-10-28T08:53:30;100852.18;;;21.65;38.59
62592;BME280;48659;41.622;2.276;2022-10-28T08:56:09;100849.83;;;21.87;38.12
62592;BME280;48659;41.622;2.276;2022-10-28T08:58:41;100850.92;;;21.67;38.14
62592;BME280;48659;41.622;2.276;2022-10-28T09:01:18;100852.07;;;22.16;36.74
62592;BME280;48659;41.622;2.276;2022-10-28T09:03:49;100854.14;;;22.41;35.84
62592;BME280;48659;41.622;2.276;2022-10-28T09:06:16;100853.49;;;22.57;35.28
62592;BME280;48659;41.622;2.276;2022-10-28T09:08:46;100854.25;;;22.39;35.45
62592;BME280;48659;41.622;2.276;2022-10-28T09:12:08;100853.27;;;22.26;35.92
62592;BME280;48659;41.622;2.276;2022-10-28T09:14:50;100850.04;;;22.45;34.69
62592;BME280;48659;41.622;2.276;2022-10-28T09:17:26;100845.34;;;23.00;33.81
62592;BME280;48659;41.622;2.276;2022-10-28T09:20:03;100850.48;;;22.58;34.29
62592;BME280;48659;41.622;2.276;2022-10-28T09:22:42;100854.65;;;22.65;34.31
62592;BME280;48659;41.622;2.276;2022-10-28T09:25:22;100856.27;;;22.98;33.59
62592;BME280;48659;41.622;2.276;2022-10-28T09:28:01;100858.45;;;23.02;33.69
62592;BME280;48659;41.622;2.276;2022-10-28T09:30:40;100852.95;;;23.22;32.57
62592;BME280;48659;41.622;2.276;2022-10-28T09:33:23;100848.37;;;23.01;32.85
62592;BME280;48659;41.622;2.276;2022-10-28T09:35:53;100850.14;;;23.08;33.72
62592;BME280;48659;41.622;2.276;2022-10-28T09:38:27;100850.69;;;22.57;33.58
62592;BME280;48659;41.622;2.276;2022-10-28T09:40:58;100855.07;;;22.85;33.94
62592;BME280;48659;41.622;2.276;2022-10-28T09:43:30;100856.26;;;23.58;33.41
62592;BME280;48659;41.622;2.276;2022-10-28T09:46:03;100857.07;;;23.54;33.31
62592;BME280;48659;41.622;2.276;2022-10-28T09:48:35;100853.34;;;23.89;32.88
62592;BME280;48659;41.622;2.276;2022-10-28T09:51:04;100857.14;;;23.37;32.93
62592;BME280;48659;41.622;2.276;2022-10-28T09:53:39;100856.41;;;23.54;32.56
62592;BME280;48659;41.622;2.276;2022-10-28T09:56:08;100863.33;;;22.63;33.70
62592;BME280;48659;41.622;2.276;2022-10-28T09:58:40;100861.21;;;23.46;32.69
62592;BME280;48659;41.622;2.276;2022-10-28T10:01:10;100857.73;;;23.35;32.33
62592;BME280;48659;41.622;2.276;2022-10-28T10:03:38;100856.28;;;22.68;32.83
62592;BME280;48659;41.622;2.276;2022-10-28T10:06:11;100856.45;;;23.23;33.13
62592;BME280;48659;41.622;2.276;2022-10-28T10:08:41;100855.26;;;23.59;32.46
62592;BME280;48659;41.622;2.276;2022-10-28T10:11:23;100853.42;;;23.81;32.04
62592;BME280;48659;41.622;2.276;2022-10-28T10:13:53;100854.14;;;24.45;31.32
62592;BME280;48659;41.622;2.276;2022-10-28T10:16:27;100856.00;;;24.83;31.04
62592;BME280;48659;41.622;2.276;2022-10-28T10:19:02;100849.16;;;24.07;31.47
62592;BME280;48659;41.622;2.276;2022-10-28T10:21:44;100848.82;;;24.61;30.91
62592;BME280;48659;41.622;2.276;2022-10-28T10:24:44;100847.33;;;24.52;30.98
62592;BME280;48659;41.622;2.276;2022-10-28T10:27:17;100850.80;;;24.97;30.36
62592;BME280;48659;41.622;2.276;2022-10-28T10:29:47;100846.89;;;24.88;30.32
62592;BME280;48659;41.622;2.276;2022-10-28T10:32:17;100843.21;;;25.12;29.94
62592;BME280;48659;41.622;2.276;2022-10-28T10:34:51;100842.17;;;23.95;30.45
62592;BME280;48659;41.622;2.276;2022-10-28T10:37:22;100838.66;;;24.62;29.64
62592;BME280;48659;41.622;2.276;2022-10-28T10:40:01;100841.30;;;24.93;29.62
62592;BME280;48659;41.622;2.276;2022-10-28T10:42:30;100836.15;;;25.47;29.49
62592;BME280;48659;41.622;2.276;2022-10-28T10:45:18;100838.14;;;23.31;32.02
62592;BME280;48659;41.622;2.276;2022-10-28T10:47:45;100838.30;;;24.79;30.22
62592;BME280;48659;41.622;2.276;2022-10-28T10:50:20;100835.81;;;25.12;29.94
62592;BME280;48659;41.622;2.276;2022-10-28T10:52:51;100834.74;;;25.27;29.79
62592;BME280;48659;41.622;2.276;2022-10-28T10:55:23;100833.73;;;25.42;29.53
62592;BME280;48659;41.622;2.276;2022-10-28T10:57:54;100831.16;;;25.51;29.34
62592;BME280;48659;41.622;2.276;2022-10-28T11:00:27;100839.59;;;24.52;30.38
62592;BME280;48659;41.622;2.276;2022-10-28T11:02:56;100838.82;;;24.40;30.68
62592;BME280;48659;41.622;2.276;2022-10-28T11:05:25;100830.01;;;23.62;31.47
62592;BME280;48659;41.622;2.276;2022-10-28T11:07:54;100828.69;;;25.21;30.33
62592;BME280;48659;41.622;2.276;2022-10-28T11:10:25;100819.98;;;25.86;30.01
62592;BME280;48659;41.622;2.276;2022-10-28T11:12:55;100814.59;;;25.68;30.03
62592;BME280;48659;41.622;2.276;2022-10-28T11:15:25;100814.09;;;25.90;29.93
62592;BME280;48659;41.622;2.276;2022-10-28T11:17:57;100807.44;;;25.70;30.07
62592;BME280;48659;41.622;2.276;2022-10-28T11:20:26;100804.80;;;26.02;30.08
62592;BME280;48659;41.622;2.276;2022-10-28T11:23:03;100797.53;;;26.34;29.35
62592;BME280;48659;41.622;2.276;2022-10-28T11:25:36;100797.08;;;26.37;29.63
62592;BME280;48659;41.622;2.276;2022-10-28T11:28:20;100794.84;;;26.65;29.35
62592;BME280;48659;41.622;2.276;2022-10-28T11:31:03;100791.93;;;26.42;29.02
62592;BME280;48659;41.622;2.276;2022-10-28T11:33:46;100788.11;;;25.76;29.36
62592;BME280;48659;41.622;2.276;2022-10-28T11:36:22;100783.63;;;26.37;28.80
62592;BME280;48659;41.622;2.276;2022-10-28T11:39:33;100781.91;;;26.35;29.06
62592;BME280;48659;41.622;2.276;2022-10-28T11:42:11;100773.96;;;26.65;28.09
62592;BME280;48659;41.622;2.276;2022-10-28T11:44:49;100771.22;;;26.91;27.91
62592;BME280;48659;41.622;2.276;2022-10-28T11:47:29;100768.39;;;26.90;27.98
62592;BME280;48659;41.622;2.276;2022-10-28T11:50:12;100762.60;;;26.68;28.34
62592;BME280;48659;41.622;2.276;2022-10-28T11:53:00;100764.29;;;26.54;28.73
62592;BME280;48659;41.622;2.276;2022-10-28T11:55:36;100764.20;;;26.48;29.02
62592;BME280;48659;41.622;2.276;2022-10-28T11:58:14;100757.77;;;25.64;29.44
62592;BME280;48659;41.622;2.276;2022-10-28T12:00:56;100749.62;;;27.16;28.30
62592;BME280;48659;41.622;2.276;2022-10-28T12:03:44;100742.62;;;27.12;27.94
62592;BME280;48659;41.622;2.276;2022-10-28T12:06:22;100740.17;;;27.34;28.21
62592;BME280;48659;41.622;2.276;2022-10-28T12:09:02;100745.43;;;26.14;30.19
62592;BME280;48659;41.622;2.276;2022-10-28T12:11:43;100740.35;;;24.76;31.39
62592;BME280;48659;41.622;2.276;2022-10-28T12:14:19;100736.38;;;26.18;29.75
62592;BME280;48659;41.622;2.276;2022-10-28T12:16:52;100732.20;;;27.43;28.81
62592;BME280;48659;41.622;2.276;2022-10-28T12:19:27;100737.81;;;25.58;30.12
62592;BME280;48659;41.622;2.276;2022-10-28T12:22:03;100733.40;;;26.43;29.70
62592;BME280;48659;41.622;2.276;2022-10-28T12:24:34;100728.86;;;26.38;29.95
62592;BME280;48659;41.622;2.276;2022-10-28T12:27:10;100727.90;;;25.81;30.61
62592;BME280;48659;41.622;2.276;2022-10-28T12:29:42;100717.07;;;26.65;29.88
62592;BME280;48659;41.622;2.276;2022-10-28T12:32:14;100716.42;;;25.92;30.51
62592;BME280;48659;41.622;2.276;2022-10-28T12:34:48;100706.73;;;27.47;28.75
62592;BME280;48659;41.622;2.276;2022-10-28T12:37:20;100702.23;;;26.77;29.79
62592;BME280;48659;41.622;2.276;2022-10-28T12:39:58;100697.74;;;27.03;29.64
62592;BME280;48659;41.622;2.276;2022-10-28T12:42:30;100695.28;;;28.18;28.26
62592;BME280;48659;41.622;2.276;2022-10-28T12:45:03;100692.36;;;27.15;28.86
62592;BME280;48659;41.622;2.276;2022-10-28T12:47:36;100693.24;;;25.72;30.85
62592;BME280;48659;41.622;2.276;2022-10-28T12:50:12;100685.71;;;26.68;29.95
62592;BME280;48659;41.622;2.276;2022-10-28T12:52:48;100685.55;;;27.56;28.46
62592;BME280;48659;41.622;2.276;2022-10-28T12:55:25;100675.82;;;27.20;28.77
62592;BME280;48659;41.622;2.276;2022-10-28T12:58:01;100674.42;;;28.16;28.29
62592;BME280;48659;41.622;2.276;2022-10-28T13:00:34;100674.03;;;27.20;30.17
62592;BME280;48659;41.622;2.276;2022-10-28T13:03:05;100678.31;;;28.08;28.26
62592;BME280;48659;41.622;2.276;2022-10-28T13:05:37;100676.76;;;27.93;28.62
62592;BME280;48659;41.622;2.276;2022-10-28T13:08:24;100674.32;;;27.70;28.44
62592;BME280;48659;41.622;2.276;2022-10-28T13:13:34;100671.01;;;28.73;28.25
62592;BME280;48659;41.622;2.276;2022-10-28T13:16:18;100667.01;;;27.62;28.84
62592;BME280;48659;41.622;2.276;2022-10-28T13:19:03;100659.07;;;26.44;30.40
62592;BME280;48659;41.622;2.276;2022-10-28T13:21:51;100657.90;;;27.83;29.10
62592;BME280;48659;41.622;2.276;2022-10-28T13:24:26;100655.45;;;27.30;29.99
62592;BME280;48659;41.622;2.276;2022-10-28T13:27:01;100654.56;;;28.47;28.13
62592;BME280;48659;41.622;2.276;2022-10-28T13:29:31;100658.92;;;27.66;29.02
62592;BME280;48659;41.622;2.276;2022-10-28T13:31:59;100655.85;;;27.02;29.43
62592;BME280;48659;41.622;2.276;2022-10-28T13:34:32;100663.34;;;25.31;32.05
62592;BME280;48659;41.622;2.276;2022-10-28T13:37:05;100658.44;;;27.58;30.42
62592;BME280;48659;41.622;2.276;2022-10-28T13:39:43;100657.97;;;25.52;33.32
62592;BME280;48659;41.622;2.276;2022-10-28T13:42:45;100656.14;;;26.91;30.34
62592;BME280;48659;41.622;2.276;2022-10-28T13:45:49;100659.63;;;27.43;28.61
62592;BME280;48659;41.622;2.276;2022-10-28T13:48:48;100654.36;;;26.65;28.80
62592;BME280;48659;41.622;2.276;2022-10-28T13:51:32;100655.11;;;27.56;27.21
62592;BME280;48659;41.622;2.276;2022-10-28T13:54:00;100651.03;;;27.26;27.35
62592;BME280;48659;41.622;2.276;2022-10-28T13:56:33;100649.92;;;27.33;27.17
62592;BME280;48659;41.622;2.276;2022-10-28T13:59:04;100649.43;;;27.09;26.85
62592;BME280;48659;41.622;2.276;2022-10-28T14:02:02;100647.53;;;27.39;26.62
62592;BME280;48659;41.622;2.276;2022-10-28T14:04:32;100649.01;;;27.54;25.53
62592;BME280;48659;41.622;2.276;2022-10-28T14:07:15;100648.13;;;27.87;24.76
62592;BME280;48659;41.622;2.276;2022-10-28T14:09:44;100644.29;;;26.81;24.85
62592;BME280;48659;41.622;2.276;2022-10-28T14:12:16;100641.64;;;27.69;24.62
62592;BME280;48659;41.622;2.276;2022-10-28T14:14:56;100634.82;;;26.70;25.64
62592;BME280;48659;41.622;2.276;2022-10-28T14:17:37;100637.71;;;27.45;25.35
62592;BME280;48659;41.622;2.276;2022-10-28T14:20:21;100638.01;;;28.10;24.72
62592;BME280;48659;41.622;2.276;2022-10-28T14:22:49;100640.44;;;28.21;24.52
62592;BME280;48659;41.622;2.276;2022-10-28T14:26:22;100638.63;;;26.49;25.35
62592;BME280;48659;41.622;2.276;2022-10-28T14:28:52;100641.62;;;27.51;23.67
62592;BME280;48659;41.622;2.276;2022-10-28T14:31:39;100644.08;;;27.29;23.26
62592;BME280;48659;41.622;2.276;2022-10-28T14:34:43;100648.46;;;27.43;23.46
62592;BME280;48659;41.622;2.276;2022-10-28T14:39:39;100649.72;;;27.67;24.00
62592;BME280;48659;41.622;2.276;2022-10-28T14:42:21;100650.03;;;27.95;23.91
62592;BME280;48659;41.622;2.276;2022-10-28T14:45:06;100651.16;;;27.45;26.09
62592;BME280;48659;41.622;2.276;2022-10-28T14:48:01;100653.94;;;27.73;26.13
62592;BME280;48659;41.622;2.276;2022-10-28T14:50:39;100652.34;;;27.43;25.78
62592;BME280;48659;41.622;2.276;2022-10-28T14:53:11;100652.35;;;27.72;26.86
62592;BME280;48659;41.622;2.276;2022-10-28T14:55:45;100651.19;;;26.86;29.43
62592;BME280;48659;41.622;2.276;2022-10-28T14:58:22;100653.67;;;26.06;31.29
62592;BME280;48659;41.622;2.276;2022-10-28T15:01:00;100654.34;;;27.67;29.34
62592;BME280;48659;41.622;2.276;2022-10-28T15:03:31;100657.36;;;26.27;32.54
62592;BME280;48659;41.622;2.276;2022-10-28T15:06:22;100655.97;;;26.16;33.79
62592;BME280;48659;41.622;2.276;2022-10-28T15:08:50;100656.50;;;27.16;33.62
62592;BME280;48659;41.622;2.276;2022-10-28T15:11:18;100655.97;;;26.94;34.32
62592;BME280;48659;41.622;2.276;2022-10-28T15:13:48;100657.06;;;27.30;34.74
62592;BME280;48659;41.622;2.276;2022-10-28T15:16:20;100655.28;;;27.00;36.17
62592;BME280;48659;41.622;2.276;2022-10-28T15:18:49;100657.00;;;25.73;37.78
62592;BME280;48659;41.622;2.276;2022-10-28T15:21:19;100659.00;;;26.37;37.21
62592;BME280;48659;41.622;2.276;2022-10-28T15:24:12;100662.25;;;26.40;37.38
62592;BME280;48659;41.622;2.276;2022-10-28T15:26:39;100663.48;;;26.40;37.16
62592;BME280;48659;41.622;2.276;2022-10-28T15:29:08;100663.65;;;27.01;35.95
62592;BME280;48659;41.622;2.276;2022-10-28T15:32:08;100665.20;;;26.75;36.10
62592;BME280;48659;41.622;2.276;2022-10-28T15:34:35;100667.18;;;27.08;35.57
62592;BME280;48659;41.622;2.276;2022-10-28T15:37:03;100671.91;;;24.54;39.72
62592;BME280;48659;41.622;2.276;2022-10-28T15:39:31;100675.24;;;24.06;42.06
62592;BME280;48659;41.622;2.276;2022-10-28T15:41:59;100678.56;;;22.81;45.42
62592;BME280;48659;41.622;2.276;2022-10-28T15:44:30;100679.72;;;23.42;44.21
62592;BME280;48659;41.622;2.276;2022-10-28T15:46:59;100675.54;;;22.78;45.98
62592;BME280;48659;41.622;2.276;2022-10-28T15:49:33;100671.30;;;24.01;43.49
62592;BME280;48659;41.622;2.276;2022-10-28T15:52:44;100671.24;;;23.74;44.00
62592;BME280;48659;41.622;2.276;2022-10-28T15:55:31;100672.27;;;22.86;45.96
62592;BME280;48659;41.622;2.276;2022-10-28T15:58:30;100675.14;;;23.14;45.92
62592;BME280;48659;41.622;2.276;2022-10-28T16:00:59;100672.86;;;22.74;46.06
62592;BME280;48659;41.622;2.276;2022-10-28T16:03:28;100675.86;;;22.03;47.91
62592;BME280;48659;41.622;2.276;2022-10-28T16:06:19;100673.64;;;24.33;43.47
62592;BME280;48659;41.622;2.276;2022-10-28T16:08:59;100677.25;;;23.10;45.76
62592;BME280;48659;41.622;2.276;2022-10-28T16:11:27;100681.24;;;22.50;47.03
62592;BME280;48659;41.622;2.276;2022-10-28T16:13:54;100679.33;;;22.43;47.94
62592;BME280;48659;41.622;2.276;2022-10-28T16:16:24;100676.76;;;24.11;44.34
62592;BME280;48659;41.622;2.276;2022-10-28T16:19:07;100678.21;;;24.48;43.29
62592;BME280;48659;41.622;2.276;2022-10-28T16:21:37;100684.70;;;23.55;44.21
62592;BME280;48659;41.622;2.276;2022-10-28T16:24:04;100680.85;;;24.98;41.41
62592;BME280;48659;41.622;2.276;2022-10-28T16:26:32;100678.51;;;25.06;40.85
62592;BME280;48659;41.622;2.276;2022-10-28T16:28:59;100678.90;;;25.29;39.79
62592;BME280;48659;41.622;2.276;2022-10-28T16:31:29;100677.67;;;25.12;39.56
62592;BME280;48659;41.622;2.276;2022-10-28T16:33:58;100682.00;;;24.03;41.65
62592;BME280;48659;41.622;2.276;2022-10-28T16:36:25;100680.83;;;24.96;40.49
62592;BME280;48659;41.622;2.276;2022-10-28T16:38:53;100681.29;;;24.96;39.74
62592;BME280;48659;41.622;2.276;2022-10-28T16:41:20;100680.97;;;25.15;39.40
62592;BME280;48659;41.622;2.276;2022-10-28T16:43:48;100680.65;;;24.69;38.80
62592;BME280;48659;41.622;2.276;2022-10-28T16:46:15;100680.95;;;24.90;38.71
62592;BME280;48659;41.622;2.276;2022-10-28T16:48:42;100681.03;;;24.88;38.54
62592;BME280;48659;41.622;2.276;2022-10-28T16:51:13;100689.66;;;23.49;40.65
62592;BME280;48659;41.622;2.276;2022-10-28T16:53:41;100691.25;;;24.44;39.18
62592;BME280;48659;41.622;2.276;2022-10-28T16:56:08;100695.02;;;24.30;39.82
62592;BME280;48659;41.622;2.276;2022-10-28T16:58:36;100694.51;;;24.30;40.70
62592;BME280;48659;41.622;2.276;2022-10-28T17:01:03;100696.74;;;23.85;41.42
62592;BME280;48659;41.622;2.276;2022-10-28T17:03:30;100696.40;;;22.80;43.88
62592;BME280;48659;41.622;2.276;2022-10-28T17:05:57;100698.58;;;23.47;43.48
62592;BME280;48659;41.622;2.276;2022-10-28T17:08:25;100702.37;;;23.82;43.11
62592;BME280;48659;41.622;2.276;2022-10-28T17:10:53;100704.17;;;23.65;43.30
62592;BME280;48659;41.622;2.276;2022-10-28T17:13:19;100703.24;;;23.80;43.30
62592;BME280;48659;41.622;2.276;2022-10-28T17:15:51;100706.03;;;23.90;43.47
62592;BME280;48659;41.622;2.276;2022-10-28T17:18:19;100709.35;;;23.97;43.52
62592;BME280;48659;41.622;2.276;2022-10-28T17:20:46;100712.96;;;23.37;44.43
62592;BME280;48659;41.622;2.276;2022-10-28T17:23:14;100718.09;;;23.44;43.90
62592;BME280;48659;41.622;2.276;2022-10-28T17:25:41;100718.29;;;23.44;44.40
62592;BME280;48659;41.622;2.276;2022-10-28T17:28:08;100717.89;;;23.35;44.44
62592;BME280;48659;41.622;2.276;2022-10-28T17:30:36;100718.85;;;23.38;44.27
62592;BME280;48659;41.622;2.276;2022-10-28T17:33:03;100717.45;;;23.45;44.08
62592;BME280;48659;41.622;2.276;2022-10-28T17:35:30;100718.41;;;23.71;43.31
62592;BME280;48659;41.622;2.276;2022-10-28T17:37:57;100714.41;;;23.10;44.35
62592;BME280;48659;41.622;2.276;2022-10-28T17:40:25;100718.52;;;20.47;48.93
62592;BME280;48659;41.622;2.276;2022-10-28T17:42:52;100722.59;;;21.30;48.27
62592;BME280;48659;41.622;2.276;2022-10-28T17:45:19;100719.28;;;22.81;45.45
62592;BME280;48659;41.622;2.276;2022-10-28T17:47:47;100718.87;;;22.21;45.55
62592;BME280;48659;41.622;2.276;2022-10-28T17:50:15;100723.50;;;21.44;47.82
62592;BME280;48659;41.622;2.276;2022-10-28T17:52:43;100726.65;;;21.30;47.83
62592;BME280;48659;41.622;2.276;2022-10-28T17:55:10;100729.58;;;20.68;48.47
62592;BME280;48659;41.622;2.276;2022-10-28T17:57:38;100733.41;;;21.97;46.49
62592;BME280;48659;41.622;2.276;2022-10-28T18:00:08;100734.51;;;22.21;45.85
62592;BME280;48659;41.622;2.276;2022-10-28T18:02:36;100739.62;;;22.08;46.08
62592;BME280;48659;41.622;2.276;2022-10-28T18:05:05;100741.88;;;22.12;45.90
62592;BME280;48659;41.622;2.276;2022-10-28T18:07:32;100742.18;;;22.26;45.66
62592;BME280;48659;41.622;2.276;2022-10-28T18:10:07;100746.36;;;22.13;46.62
62592;BME280;48659;41.622;2.276;2022-10-28T18:12:35;100742.13;;;22.35;45.16
62592;BME280;48659;41.622;2.276;2022-10-28T18:15:02;100741.62;;;22.92;44.05
62592;BME280;48659;41.622;2.276;2022-10-28T18:17:29;100743.41;;;22.66;44.10
62592;BME280;48659;41.622;2.276;2022-10-28T18:19:57;100747.26;;;22.22;45.03
62592;BME280;48659;41.622;2.276;2022-10-28T18:22:24;100747.73;;;21.88;45.29
62592;BME280;48659;41.622;2.276;2022-10-28T18:24:52;100749.91;;;22.00;45.21
62592;BME280;48659;41.622;2.276;2022-10-28T18:27:19;100754.09;;;22.05;43.62
62592;BME280;48659;41.622;2.276;2022-10-28T18:29:46;100754.57;;;21.48;45.54
62592;BME280;48659;41.622;2.276;2022-10-28T18:32:14;100755.91;;;21.72;45.19
62592;BME280;48659;41.622;2.276;2022-10-28T18:34:41;100755.63;;;20.49;47.76
62592;BME280;48659;41.622;2.276;2022-10-28T18:37:08;100760.51;;;20.85;47.09
62592;BME280;48659;41.622;2.276;2022-10-28T18:39:36;100762.82;;;21.33;46.59
62592;BME280;48659;41.622;2.276;2022-10-28T18:42:04;100769.83;;;20.54;46.91
62592;BME280;48659;41.622;2.276;2022-10-28T18:44:32;100767.40;;;20.87;46.31
62592;BME280;48659;41.622;2.276;2022-10-28T18:47:06;100763.75;;;20.85;46.23
62592;BME280;48659;41.622;2.276;2022-10-28T18:49:33;100766.04;;;20.08;47.12
62592;BME280;48659;41.622;2.276;2022-10-28T18:52:02;100764.75;;;20.18;46.07
62592;BME280;48659;41.622;2.276;2022-10-28T18:54:30;100764.33;;;20.38;44.94
62592;BME280;48659;41.622;2.276;2022-10-28T18:56:57;100758.82;;;20.92;44.69
62592;BME280;48659;41.622;2.276;2022-10-28T18:59:25;100763.79;;;19.72;45.50
62592;BME280;48659;41.622;2.276;2022-10-28T19:01:53;100764.23;;;20.36;44.55
62592;BME280;48659;41.622;2.276;2022-10-28T19:04:21;100767.05;;;20.55;44.36
62592;BME280;48659;41.622;2.276;2022-10-28T19:06:49;100762.37;;;20.92;43.67
62592;BME280;48659;41.622;2.276;2022-10-28T19:09:16;100769.51;;;20.55;42.66
62592;BME280;48659;41.622;2.276;2022-10-28T19:11:44;100769.54;;;19.29;43.75
62592;BME280;48659;41.622;2.276;2022-10-28T19:14:11;100766.42;;;18.48;46.61
62592;BME280;48659;41.622;2.276;2022-10-28T19:16:39;100773.80;;;20.02;44.73
62592;BME280;48659;41.622;2.276;2022-10-28T19:19:06;100773.36;;;19.36;43.50
62592;BME280;48659;41.622;2.276;2022-10-28T19:21:34;100771.13;;;19.57;43.27
62592;BME280;48659;41.622;2.276;2022-10-28T19:24:01;100769.65;;;19.45;43.90
62592;BME280;48659;41.622;2.276;2022-10-28T19:26:28;100766.92;;;18.46;45.11
62592;BME280;48659;41.622;2.276;2022-10-28T19:28:57;100767.48;;;19.72;43.89
62592;BME280;48659;41.622;2.276;2022-10-28T19:31:25;100768.41;;;18.06;45.92
62592;BME280;48659;41.622;2.276;2022-10-28T19:33:54;100769.60;;;16.58;48.46
62592;BME280;48659;41.622;2.276;2022-10-28T19:36:22;100765.19;;;18.36;44.17
62592;BME280;48659;41.622;2.276;2022-10-28T19:38:51;100762.42;;;18.77;43.00
62592;BME280;48659;41.622;2.276;2022-10-28T19:41:21;100761.21;;;18.51;43.50
62592;BME280;48659;41.622;2.276;2022-10-28T19:43:51;100764.37;;;19.27;43.12
62592;BME280;48659;41.622;2.276;2022-10-28T19:46:19;100765.12;;;18.83;44.06
62592;BME280;48659;41.622;2.276;2022-10-28T19:48:49;100772.05;;;16.87;47.35
62592;BME280;48659;41.622;2.276;2022-10-28T19:51:18;100773.77;;;17.16;46.73
62592;BME280;48659;41.622;2.276;2022-10-28T19:53:46;100773.70;;;18.67;44.47
62592;BME280;48659;41.622;2.276;2022-10-28T19:56:14;100774.54;;;18.56;44.10
62592;BME280;48659;41.622;2.276;2022-10-28T19:58:41;100772.30;;;16.38;47.75
62592;BME280;48659;41.622;2.276;2022-10-28T20:01:08;100767.76;;;18.05;44.39
62592;BME280;48659;41.622;2.276;2022-10-28T20:03:36;100768.22;;;18.74;42.55
62592;BME280;48659;41.622;2.276;2022-10-28T20:06:07;100767.79;;;18.71;42.65
62592;BME280;48659;41.622;2.276;2022-10-28T20:08:36;100768.65;;;18.14;43.40
62592;BME280;48659;41.622;2.276;2022-10-28T20:11:05;100768.43;;;17.03;44.84
62592;BME280;48659;41.622;2.276;2022-10-28T20:13:34;100772.03;;;17.82;43.74
62592;BME280;48659;41.622;2.276;2022-10-28T20:16:03;100774.60;;;17.96;43.62
62592;BME280;48659;41.622;2.276;2022-10-28T20:18:31;100769.23;;;18.41;42.45
62592;BME280;48659;41.622;2.276;2022-10-28T20:21:06;100766.04;;;19.00;41.52
62592;BME280;48659;41.622;2.276;2022-10-28T20:23:34;100772.84;;;17.20;44.05
62592;BME280;48659;41.622;2.276;2022-10-28T20:26:02;100767.81;;;17.91;43.12